Time;durP1;ratioP1;P1;durP2;ratioP2;P2;SDS_P1;SDS_P2;PMS_P1;PMS_P2;Temp;Humidity;BMP_temperature;BMP_pressure;BME280_temperature;BME280_humidity;BME280_pressure;Samples;Min_cycle;Max_cycle;Signal;HPM_P1;HPM_P2
2023/08/28 00:01:58;;;;;;;4.10;3.13;;;;;;;13.72;100.00;100367.06;4996376;28;20049;-96
2023/08/28 00:04:24;;;;;;;3.70;2.50;;;;;;;13.73;100.00;100360.94;4996311;28;20059;-96
2023/08/28 00:06:52;;;;;;;5.72;3.30;;;;;;;13.75;100.00;100365.06;4995846;28;20033;-96
2023/08/28 00:09:17;;;;;;;5.78;2.97;;;;;;;13.73;100.00;100358.34;4996020;28;20369;-96
2023/08/28 00:11:43;;;;;;;4.80;2.92;;;;;;;13.79;100.00;100365.69;4995958;28;20031;-96
2023/08/28 00:14:08;;;;;;;3.88;3.05;;;;;;;13.75;100.00;100356.47;4996029;28;20047;-96
2023/08/28 00:16:34;;;;;;;4.80;2.80;;;;;;;13.72;100.00;100362.72;4996121;28;20473;-96
2023/08/28 00:18:59;;;;;;;4.25;3.05;;;;;;;13.66;100.00;100358.81;4996331;28;20041;-96
2023/08/28 00:21:25;;;;;;;3.35;2.38;;;;;;;13.74;100.00;100354.81;4995497;28;20132;-96
2023/08/28 00:23:50;;;;;;;4.55;2.90;;;;;;;13.66;100.00;100348.44;4996103;28;20030;-96
2023/08/28 00:26:16;;;;;;;3.38;2.53;;;;;;;13.55;100.00;100348.34;4995969;28;20019;-96
2023/08/28 00:28:41;;;;;;;6.72;2.72;;;;;;;13.45;100.00;100342.16;4996157;28;20026;-96
2023/08/28 00:31:09;;;;;;;2.70;2.30;;;;;;;13.44;100.00;100337.94;4998208;28;20030;-96
2023/08/28 00:33:35;;;;;;;2.55;2.03;;;;;;;13.32;100.00;100339.63;5004424;28;20026;-96
2023/08/28 00:36:00;;;;;;;3.17;1.80;;;;;;;13.28;100.00;100333.00;4997848;28;20113;-96
2023/08/28 00:38:25;;;;;;;4.32;2.10;;;;;;;13.32;100.00;100334.44;4996541;28;20490;-96
2023/08/28 00:40:51;;;;;;;5.10;1.98;;;;;;;13.21;100.00;100342.91;4997815;28;20030;-95
2023/08/28 00:43:16;;;;;;;2.72;1.95;;;;;;;13.23;100.00;100337.66;4995800;28;20420;-96
2023/08/28 00:45:43;;;;;;;3.13;1.88;;;;;;;13.15;100.00;100333.00;4996908;28;20027;-96
2023/08/28 00:48:15;;;;;;;2.78;1.95;;;;;;;13.12;100.00;100330.63;4995627;28;20485;-96
2023/08/28 00:50:41;;;;;;;3.25;2.20;;;;;;;13.03;100.00;100328.69;4995740;28;20026;-96
2023/08/28 00:53:07;;;;;;;3.17;1.90;;;;;;;13.02;100.00;100332.19;4995328;28;20018;-96
2023/08/28 00:55:34;;;;;;;2.78;1.70;;;;;;;13.09;100.00;100343.78;4995307;28;20496;-96
2023/08/28 00:58:01;;;;;;;3.28;1.63;;;;;;;13.05;100.00;100338.00;4994891;28;20162;-96
2023/08/28 01:00:28;;;;;;;3.28;1.75;;;;;;;13.09;100.00;100336.00;4994565;28;20022;-96
2023/08/28 01:02:53;;;;;;;4.80;1.42;;;;;;;13.10;100.00;100340.28;4994369;28;20026;-95
2023/08/28 01:05:25;;;;;;;4.88;1.63;;;;;;;13.06;100.00;100328.44;4994365;28;20018;-95
2023/08/28 01:08:04;;;;;;;2.60;1.60;;;;;;;13.08;100.00;100339.53;4994563;28;20034;-95
2023/08/28 01:10:49;;;;;;;2.25;1.65;;;;;;;13.16;100.00;100336.41;4993147;28;20031;-95
2023/08/28 01:13:24;;;;;;;3.78;1.83;;;;;;;13.22;100.00;100339.41;4995130;28;20070;-96
2023/08/28 01:15:52;;;;;;;2.63;1.75;;;;;;;13.25;100.00;100338.38;4994265;28;20034;-95
2023/08/28 01:18:18;;;;;;;5.13;2.25;;;;;;;13.31;100.00;100342.31;4994648;28;20026;-94
2023/08/28 01:20:47;;;;;;;3.42;2.15;;;;;;;13.35;100.00;100339.41;4994173;28;20024;-96
2023/08/28 01:23:41;;;;;;;4.65;2.30;;;;;;;13.39;100.00;100343.44;4994309;28;20365;-96
2023/08/28 01:26:07;;;;;;;2.53;1.77;;;;;;;13.34;100.00;100345.53;4994868;28;20034;-96
2023/08/28 01:28:33;;;;;;;3.30;1.80;;;;;;;13.39;100.00;100347.81;4993985;28;20037;-95
2023/08/28 01:30:58;;;;;;;2.63;1.98;;;;;;;13.38;100.00;100351.31;4994126;28;20031;-96
2023/08/28 01:33:23;;;;;;;4.13;1.90;;;;;;;13.34;100.00;100349.88;4993953;28;20030;-95
2023/08/28 01:36:06;;;;;;;2.63;1.50;;;;;;;13.34;100.00;100353.31;4994665;28;20113;-96
2023/08/28 01:38:38;;;;;;;2.58;1.60;;;;;;;13.29;100.00;100352.81;4993909;28;20022;-96
2023/08/28 01:41:03;;;;;;;4.13;1.98;;;;;;;13.25;100.00;100356.50;4998174;28;20054;-96
2023/08/28 01:43:34;;;;;;;3.40;1.88;;;;;;;13.24;100.00;100358.28;4993823;28;20081;-94
2023/08/28 01:46:00;;;;;;;1.92;1.70;;;;;;;13.30;100.00;100361.41;4993182;28;20026;-93
2023/08/28 01:48:27;;;;;;;2.75;1.90;;;;;;;13.36;100.00;100360.97;4993861;28;20361;-94
2023/08/28 01:50:52;;;;;;;2.67;1.90;;;;;;;13.33;100.00;100356.00;4993558;28;20117;-96
2023/08/28 01:53:18;;;;;;;2.80;1.90;;;;;;;13.40;100.00;100352.88;4993917;28;20371;-95
2023/08/28 01:55:46;;;;;;;3.83;2.15;;;;;;;13.37;100.00;100357.44;4992801;28;20030;-93
2023/08/28 01:58:12;;;;;;;4.10;2.88;;;;;;;13.30;100.00;100346.69;4993265;28;20154;-96
2023/08/28 02:00:38;;;;;;;3.60;2.38;;;;;;;13.31;100.00;100347.50;4993905;28;20018;-96
2023/08/28 02:03:05;;;;;;;6.13;3.10;;;;;;;13.33;100.00;100346.44;4997874;28;20032;-96
2023/08/28 02:05:31;;;;;;;14.00;3.20;;;;;;;13.43;100.00;100347.44;4994136;28;20447;-95
2023/08/28 02:07:56;;;;;;;4.18;2.80;;;;;;;13.42;100.00;100345.00;4993868;28;20033;-96
2023/08/28 02:10:22;;;;;;;4.38;2.55;;;;;;;13.44;100.00;100343.13;4996179;28;20388;-96
2023/08/28 02:12:47;;;;;;;3.75;2.03;;;;;;;13.47;100.00;100351.50;4993085;28;20018;-91
2023/08/28 02:15:12;;;;;;;2.58;2.20;;;;;;;13.39;100.00;100340.03;4994426;28;20022;-94
2023/08/28 02:17:38;;;;;;;4.70;2.10;;;;;;;13.39;100.00;100345.22;4993369;28;20085;-94
2023/08/28 02:20:04;;;;;;;4.55;2.65;;;;;;;13.61;100.00;100347.94;4994343;28;20460;-94
2023/08/28 02:22:29;;;;;;;2.60;2.28;;;;;;;13.49;100.00;100348.81;4995007;28;20041;-96
2023/08/28 02:24:55;;;;;;;3.90;1.95;;;;;;;13.38;100.00;100349.53;4999834;28;20406;-96
2023/08/28 02:27:21;;;;;;;4.20;2.10;;;;;;;13.34;100.00;100347.28;4995175;28;20477;-96
2023/08/28 02:29:46;;;;;;;1.73;1.52;;;;;;;13.28;100.00;100343.38;4997038;28;20026;-94
2023/08/28 02:32:12;;;;;;;2.53;1.80;;;;;;;13.25;100.00;100346.97;4995766;28;20049;-96
2023/08/28 02:34:37;;;;;;;1.98;1.50;;;;;;;13.25;100.00;100354.75;4994576;28;20072;-95
2023/08/28 02:37:03;;;;;;;2.20;1.70;;;;;;;13.22;100.00;100352.38;5002498;28;20025;-95
2023/08/28 02:39:28;;;;;;;1.35;1.25;;;;;;;13.24;100.00;100358.28;4993952;28;20034;-96
2023/08/28 02:41:53;;;;;;;2.17;1.25;;;;;;;13.24;100.00;100350.50;4995002;28;20053;-96
2023/08/28 02:44:19;;;;;;;2.75;1.80;;;;;;;13.24;100.00;100355.69;4994112;28;20018;-94
2023/08/28 02:46:44;;;;;;;1.55;1.45;;;;;;;13.27;100.00;100358.09;4994444;28;20064;-95
2023/08/28 02:49:10;;;;;;;3.03;1.88;;;;;;;13.26;100.00;100359.00;4992965;28;20026;-95
2023/08/28 02:51:35;;;;;;;3.05;2.08;;;;;;;13.28;100.00;100357.13;4994332;28;20038;-96
2023/08/28 02:54:01;;;;;;;2.85;2.17;;;;;;;13.46;100.00;100346.41;4992008;28;20037;-95
2023/08/28 02:56:38;;;;;;;4.00;1.83;;;;;;;13.44;100.00;100350.91;4993633;28;20030;-95
2023/08/28 02:59:04;;;;;;;3.08;1.98;;;;;;;13.52;100.00;100351.16;4993735;28;20117;-96
2023/08/28 03:01:34;;;;;;;4.20;2.92;;;;;;;13.81;100.00;100350.84;4992904;28;20515;-95
2023/08/28 03:04:04;;;;;;;4.10;2.28;;;;;;;13.82;100.00;100362.88;4992908;28;20109;-95
2023/08/28 03:06:36;;;;;;;2.63;2.33;;;;;;;13.76;100.00;100368.53;4993312;28;20018;-96
2023/08/28 03:09:01;;;;;;;;;;;;;;;13.70;100.00;100365.44;4993373;28;20033;-96
2023/08/28 03:11:26;;;;;;;2.00;1.80;;;;;;;13.72;100.00;100362.72;4993176;28;19913;-95
2023/08/28 03:13:52;;;;;;;5.85;2.35;;;;;;;13.85;100.00;100357.47;4993044;28;20275;-96
2023/08/28 03:16:17;;;;;;;3.53;2.80;;;;;;;13.85;100.00;100360.06;4993547;28;20018;-96
2023/08/28 03:18:42;;;;;;;8.48;3.10;;;;;;;13.77;100.00;100367.56;4993073;28;20014;-96
2023/08/28 03:21:08;;;;;;;4.65;3.88;;;;;;;13.76;100.00;100368.53;4992514;28;20113;-96
2023/08/28 03:23:33;;;;;;;6.15;3.63;;;;;;;13.97;100.00;100361.75;4993620;28;20388;-95
2023/08/28 03:25:59;;;;;;;5.30;4.00;;;;;;;13.90;100.00;100365.75;4992966;28;20022;-96
2023/08/28 03:28:24;;;;;;;6.38;4.30;;;;;;;13.90;100.00;100366.59;4992912;28;20045;-94
2023/08/28 03:30:50;;;;;;;4.95;4.00;;;;;;;13.90;100.00;100361.41;4992999;28;20494;-96
2023/08/28 03:33:15;;;;;;;6.30;4.60;;;;;;;13.94;100.00;100361.97;4994462;28;20030;-95
2023/08/28 03:35:40;;;;;;;5.68;3.92;;;;;;;14.04;100.00;100369.94;4996924;28;20022;-96
2023/08/28 03:38:06;;;;;;;4.15;3.75;;;;;;;13.93;100.00;100365.53;4997273;28;20423;-96
2023/08/28 03:40:32;;;;;;;7.20;3.20;;;;;;;13.84;100.00;100361.00;4995593;28;20022;-95
2023/08/28 03:42:57;;;;;;;3.80;2.95;;;;;;;13.77;100.00;100364.97;4995909;28;20110;-96
2023/08/28 03:45:22;;;;;;;4.55;3.22;;;;;;;13.81;100.00;100372.44;4995698;28;20030;-96
2023/08/28 03:47:48;;;;;;;4.40;2.97;;;;;;;13.80;100.00;100369.94;4995865;28;20048;-96
2023/08/28 03:50:13;;;;;;;4.13;3.10;;;;;;;14.13;100.00;100367.50;4995887;28;20088;-96
2023/08/28 03:52:39;;;;;;;3.85;2.85;;;;;;;14.24;100.00;100368.47;4995582;28;20029;-96
2023/08/28 03:55:04;;;;;;;3.28;2.22;;;;;;;14.09;100.00;100363.47;4995718;28;20034;-96
2023/08/28 03:57:29;;;;;;;3.67;2.65;;;;;;;14.21;100.00;100374.72;4995611;28;20061;-95
2023/08/28 03:59:56;;;;;;;4.10;2.83;;;;;;;14.02;100.00;100364.88;4995928;28;20026;-96
2023/08/28 04:02:21;;;;;;;3.50;2.42;;;;;;;14.01;100.00;100373.56;4995543;28;20037;-95
2023/08/28 04:04:46;;;;;;;3.58;2.95;;;;;;;14.05;100.00;100375.03;4995388;28;20030;-96
2023/08/28 04:07:31;;;;;;;3.17;2.75;;;;;;;14.04;100.00;100372.53;4995123;28;20060;-96
2023/08/28 04:09:57;;;;;;;7.57;3.17;;;;;;;14.09;100.00;100380.81;4995386;28;20026;-96
2023/08/28 04:12:22;;;;;;;3.58;3.28;;;;;;;13.97;100.00;100376.50;4995534;28;20084;-96
2023/08/28 04:14:48;;;;;;;6.50;5.30;;;;;;;13.95;100.00;100394.78;4995144;28;20026;-96
2023/08/28 04:17:13;;;;;;;7.22;4.70;;;;;;;13.94;100.00;100387.94;4995624;28;20022;-96
2023/08/28 04:19:38;;;;;;;5.10;4.28;;;;;;;14.01;100.00;100385.72;4995168;28;20431;-95
2023/08/28 04:22:05;;;;;;;4.90;3.92;;;;;;;14.00;100.00;100387.50;4996529;28;20116;-95
2023/08/28 04:24:31;;;;;;;8.80;3.38;;;;;;;13.94;100.00;100389.69;4995293;28;20468;-95
2023/08/28 04:26:56;;;;;;;4.80;3.20;;;;;;;13.89;100.00;100390.84;4995254;28;20026;-96
2023/08/28 04:29:21;;;;;;;4.30;2.72;;;;;;;13.99;100.00;100396.22;4995225;28;20022;-96
2023/08/28 04:31:47;;;;;;;4.07;3.05;;;;;;;14.05;100.00;100392.38;4995308;28;20018;-96
2023/08/28 04:34:13;;;;;;;3.25;2.60;;;;;;;13.87;100.00;100391.91;4995301;28;20027;-95
2023/08/28 04:36:38;;;;;;;2.65;2.38;;;;;;;13.90;100.00;100392.53;4995483;28;20019;-95
2023/08/28 04:39:04;;;;;;;2.15;1.95;;;;;;;13.78;100.00;100398.59;4995562;28;20041;-96
2023/08/28 04:41:29;;;;;;;1.92;1.75;;;;;;;13.69;100.00;100397.47;4995485;28;20057;-96
2023/08/28 04:43:55;;;;;;;2.20;2.00;;;;;;;13.78;100.00;100384.81;4994979;28;20117;-94
2023/08/28 04:46:22;;;;;;;1.40;1.30;;;;;;;13.69;100.00;100394.06;4994798;28;20514;-96
2023/08/28 04:48:47;;;;;;;1.83;1.55;;;;;;;13.65;100.00;100393.44;4995263;28;20050;-95
2023/08/28 04:51:13;;;;;;;2.63;1.40;;;;;;;13.62;100.00;100388.47;4994928;28;20027;-96
2023/08/28 04:53:38;;;;;;;1.23;1.05;;;;;;;13.70;100.00;100398.31;4994382;28;20033;-96
2023/08/28 04:56:04;;;;;;;1.13;0.90;;;;;;;13.78;100.00;100395.19;4996101;28;20030;-96
2023/08/28 04:58:29;;;;;;;1.05;0.95;;;;;;;13.75;100.00;100397.97;4994749;28;20126;-96
2023/08/28 05:00:55;;;;;;;1.30;1.20;;;;;;;13.90;100.00;100402.91;4994716;28;20392;-95
2023/08/28 05:03:21;;;;;;;1.20;1.10;;;;;;;13.91;100.00;100398.53;4994448;28;20035;-96
2023/08/28 05:05:47;;;;;;;2.00;1.30;;;;;;;13.78;100.00;100403.78;4994323;28;20076;-95
2023/08/28 05:08:12;;;;;;;1.23;0.85;;;;;;;13.83;100.00;100395.69;4994202;28;20027;-96
2023/08/28 05:10:38;;;;;;;1.50;1.20;;;;;;;13.87;100.00;100403.09;4994276;28;20480;-96
2023/08/28 05:13:03;;;;;;;2.45;1.30;;;;;;;13.96;100.00;100393.03;4994506;28;20030;-96
2023/08/28 05:15:29;;;;;;;0.77;0.70;;;;;;;14.02;100.00;100396.00;4994176;28;20334;-96
2023/08/28 05:17:54;;;;;;;1.02;0.93;;;;;;;13.80;100.00;100394.13;4994292;28;20034;-95
2023/08/28 05:20:19;;;;;;;1.35;0.90;;;;;;;13.82;100.00;100399.19;4994349;28;20068;-96
2023/08/28 05:22:45;;;;;;;3.08;0.90;;;;;;;13.92;100.00;100407.97;4993974;28;20468;-96
2023/08/28 05:25:10;;;;;;;1.25;0.90;;;;;;;13.72;100.00;100406.81;4994332;28;20061;-95
2023/08/28 05:27:36;;;;;;;1.05;0.60;;;;;;;13.65;100.00;100414.19;4994277;28;20112;-95
2023/08/28 05:30:01;;;;;;;1.30;0.70;;;;;;;13.61;100.00;100414.53;4994204;28;20081;-95
2023/08/28 05:32:26;;;;;;;1.33;0.70;;;;;;;13.59;100.00;100413.81;4993820;28;20080;-96
2023/08/28 05:34:53;;;;;;;1.05;0.70;;;;;;;13.56;100.00;100420.03;4994042;28;20384;-95
2023/08/28 05:37:19;;;;;;;0.65;0.50;;;;;;;13.52;100.00;100423.78;4993933;28;20037;-96
2023/08/28 05:39:44;;;;;;;0.68;0.50;;;;;;;13.45;100.00;100427.72;4994039;28;20022;-95
2023/08/28 05:42:09;;;;;;;3.15;0.57;;;;;;;13.53;100.00;100427.19;4993723;28;20033;-96
2023/08/28 05:44:35;;;;;;;0.77;0.70;;;;;;;13.63;100.00;100415.22;4993913;28;20428;-95
2023/08/28 05:47:00;;;;;;;2.42;0.98;;;;;;;13.77;100.00;100416.84;4993659;28;20033;-96
2023/08/28 05:49:26;;;;;;;3.90;0.65;;;;;;;13.64;100.00;100422.09;4993741;28;20057;-95
2023/08/28 05:51:53;;;;;;;1.50;0.80;;;;;;;13.62;100.00;100429.16;4993464;28;20033;-95
2023/08/28 05:54:18;;;;;;;1.85;0.90;;;;;;;13.50;100.00;100428.25;4993812;28;20030;-95
2023/08/28 05:56:43;;;;;;;1.95;0.93;;;;;;;13.54;100.00;100437.47;4994292;28;20101;-96
2023/08/28 05:59:09;;;;;;;0.95;0.60;;;;;;;13.64;100.00;100442.84;4993303;28;20031;-96
2023/08/28 06:01:34;;;;;;;2.60;0.47;;;;;;;13.58;100.00;100444.09;4993738;28;20467;-96
2023/08/28 06:03:59;;;;;;;2.55;0.60;;;;;;;13.56;100.00;100443.38;4994642;28;20033;-96
2023/08/28 06:06:25;;;;;;;0.70;0.40;;;;;;;13.59;100.00;100445.75;4993423;28;20473;-95
2023/08/28 06:08:50;;;;;;;2.90;0.55;;;;;;;13.58;100.00;100449.28;4993282;28;20051;-96
2023/08/28 06:11:15;;;;;;;1.20;0.60;;;;;;;13.61;100.00;100451.66;4993222;28;20037;-96
2023/08/28 06:13:41;;;;;;;0.40;0.40;;;;;;;13.66;100.00;100452.16;4993570;28;20484;-95
2023/08/28 06:16:06;;;;;;;0.28;0.28;;;;;;;13.64;100.00;100454.03;4993251;28;20030;-96
2023/08/28 06:18:32;;;;;;;1.17;0.50;;;;;;;13.63;100.00;100455.00;4993197;28;20026;-96
2023/08/28 06:20:58;;;;;;;0.57;0.38;;;;;;;13.67;100.00;100464.19;4993044;28;20361;-95
2023/08/28 06:23:24;;;;;;;0.30;0.28;;;;;;;13.65;100.00;100466.06;4993157;28;20022;-96
2023/08/28 06:25:49;;;;;;;1.00;0.30;;;;;;;13.59;100.00;100466.50;4993297;28;20353;-95
2023/08/28 06:28:14;;;;;;;0.85;0.30;;;;;;;13.45;100.00;100464.03;4992676;28;20473;-96
2023/08/28 06:30:40;;;;;;;0.52;0.20;;;;;;;13.33;100.00;100464.88;4993068;28;20026;-96
2023/08/28 06:33:05;;;;;;;0.45;0.30;;;;;;;13.39;100.00;100469.66;4992640;28;20381;-96
2023/08/28 06:35:32;;;;;;;0.50;0.30;;;;;;;13.47;100.00;100469.94;4992693;28;20022;-95
2023/08/28 06:37:58;;;;;;;0.47;0.30;;;;;;;13.64;100.00;100466.19;4992435;28;20025;-96
2023/08/28 06:40:23;;;;;;;5.57;0.40;;;;;;;13.70;100.00;100464.00;4992745;28;20387;-96
2023/08/28 06:42:48;;;;;;;0.80;0.55;;;;;;;13.75;100.00;100461.06;4992487;28;20019;-96
2023/08/28 06:45:14;;;;;;;1.77;0.60;;;;;;;13.83;100.00;100471.75;4992725;28;20067;-96
2023/08/28 06:47:39;;;;;;;1.92;0.50;;;;;;;14.32;100.00;100463.03;4992770;28;20065;-96
2023/08/28 06:50:05;;;;;;;0.52;0.40;;;;;;;14.93;100.00;100465.47;4992432;28;20022;-96
2023/08/28 06:52:31;;;;;;;1.10;0.40;;;;;;;15.73;100.00;100467.19;4992108;28;20125;-95
2023/08/28 06:54:56;;;;;;;0.30;0.30;;;;;;;17.42;100.00;100466.38;4992349;28;20109;-96
2023/08/28 06:57:22;;;;;;;0.95;0.40;;;;;;;18.96;89.33;100473.69;4992469;28;20086;-96
2023/08/28 06:59:48;;;;;;;0.30;0.22;;;;;;;18.54;86.58;100474.00;4992353;28;20019;-95
2023/08/28 07:02:14;;;;;;;0.75;0.45;;;;;;;18.46;88.02;100473.84;4992167;28;20100;-96
2023/08/28 07:04:39;;;;;;;0.50;0.32;;;;;;;18.78;84.37;100482.25;4991930;28;20496;-96
2023/08/28 07:07:05;;;;;;;0.40;0.28;;;;;;;17.37;88.70;100479.00;4991543;28;20109;-96
2023/08/28 07:09:30;;;;;;;0.40;0.32;;;;;;;16.74;100.00;100476.41;4991647;28;20061;-96
2023/08/28 07:11:56;;;;;;;1.02;0.25;;;;;;;16.50;100.00;100483.66;4991959;28;20050;-96
2023/08/28 07:14:21;;;;;;;2.15;0.63;;;;;;;16.20;100.00;100480.81;4993244;28;20129;-95
2023/08/28 07:16:46;;;;;;;1.40;0.75;;;;;;;16.08;100.00;100481.78;4992106;28;20027;-96
2023/08/28 07:19:12;;;;;;;3.08;0.82;;;;;;;15.91;100.00;100477.91;4992153;28;20030;-96
2023/08/28 07:21:38;;;;;;;1.58;0.80;;;;;;;15.72;100.00;100480.31;4992025;28;20049;-96
2023/08/28 07:24:03;;;;;;;1.60;0.80;;;;;;;15.56;100.00;100488.47;4992120;28;20034;-96
2023/08/28 07:26:29;;;;;;;1.10;0.90;;;;;;;15.55;100.00;100492.00;4992002;28;20380;-96
2023/08/28 07:28:54;;;;;;;1.40;0.65;;;;;;;15.52;100.00;100498.28;4992019;28;20041;-96
2023/08/28 07:31:19;;;;;;;1.58;1.20;;;;;;;15.55;100.00;100502.41;4992141;28;20473;-96
2023/08/28 07:33:45;;;;;;;1.33;0.85;;;;;;;15.47;100.00;100502.19;4992108;28;20357;-96
2023/08/28 07:36:10;;;;;;;1.27;0.77;;;;;;;15.99;100.00;100500.72;4992120;28;20030;-96
2023/08/28 07:38:35;;;;;;;1.13;0.60;;;;;;;17.84;99.79;100512.44;4992279;28;20053;-96
2023/08/28 07:41:01;;;;;;;3.50;1.00;;;;;;;18.75;86.17;100513.06;4992258;28;20034;-95
2023/08/28 07:43:26;;;;;;;0.50;0.40;;;;;;;17.67;94.74;100509.44;4992064;28;20471;-95
2023/08/28 07:45:52;;;;;;;1.60;0.60;;;;;;;17.09;100.00;100519.63;4992047;28;20025;-96
2023/08/28 07:48:17;;;;;;;0.88;0.50;;;;;;;18.46;90.34;100513.06;4991223;28;20030;-96
2023/08/28 07:50:45;;;;;;;0.70;0.50;;;;;;;18.48;85.90;100511.13;4991881;28;20034;-96
2023/08/28 07:53:11;;;;;;;1.85;0.40;;;;;;;18.88;83.99;100523.28;4992073;28;20113;-96
2023/08/28 07:55:37;;;;;;;0.82;0.40;;;;;;;21.45;67.10;100518.59;4991827;28;20073;-96
2023/08/28 07:58:04;;;;;;;0.98;0.32;;;;;;;22.53;61.95;100518.75;4992027;28;20084;-96
2023/08/28 08:00:34;;;;;;;0.45;0.30;;;;;;;21.22;63.07;100518.28;4992989;28;20022;-96
2023/08/28 08:03:00;;;;;;;0.55;0.30;;;;;;;20.27;69.41;100525.06;4992366;28;20029;-96
2023/08/28 08:05:25;;;;;;;0.65;0.40;;;;;;;20.06;72.56;100525.31;4991976;28;20035;-96
2023/08/28 08:07:51;;;;;;;6.70;1.38;;;;;;;20.22;73.13;100524.69;4992200;28;20038;-96
2023/08/28 08:10:16;;;;;;;1.50;0.50;;;;;;;20.06;71.44;100518.28;4991684;28;20026;-96
2023/08/28 08:12:42;;;;;;;1.35;0.35;;;;;;;19.46;73.05;100525.75;4992094;28;20025;-96
2023/08/28 08:15:08;;;;;;;0.88;0.50;;;;;;;19.52;73.82;100533.00;4991758;28;20384;-96
2023/08/28 08:17:35;;;;;;;0.20;0.20;;;;;;;19.27;74.82;100538.88;4992030;28;20030;-96
2023/08/28 08:20:01;;;;;;;1.10;0.13;;;;;;;19.06;75.36;100536.44;4993965;28;20370;-96
2023/08/28 08:22:26;;;;;;;0.15;0.10;;;;;;;19.49;73.55;100522.84;4995393;28;20030;-96
2023/08/28 08:24:52;;;;;;;0.65;0.20;;;;;;;19.62;72.52;100533.78;4995196;28;20022;-96
2023/08/28 08:27:17;;;;;;;0.20;0.10;;;;;;;19.73;71.18;100529.34;4995014;28;20035;-96
2023/08/28 08:29:43;;;;;;;0.40;0.20;;;;;;;20.35;68.29;100532.16;4995329;28;20025;-96
2023/08/28 08:32:08;;;;;;;0.03;0.03;;;;;;;20.39;66.84;100541.41;4995252;28;20026;-96
2023/08/28 08:34:33;;;;;;;0.90;0.28;;;;;;;20.82;64.28;100538.00;4995200;28;20050;-96
2023/08/28 08:36:59;;;;;;;0.50;0.20;;;;;;;20.65;64.67;100538.84;4995224;28;20464;-96
2023/08/28 08:39:24;;;;;;;0.85;0.13;;;;;;;20.65;64.91;100531.81;4995066;28;20062;-96
2023/08/28 08:41:50;;;;;;;0.22;0.10;;;;;;;20.71;66.37;100543.50;4994987;28;20436;-96
2023/08/28 08:44:15;;;;;;;0.15;0.10;;;;;;;22.02;60.44;100536.38;4995327;28;20057;-96
2023/08/28 08:46:42;;;;;;;0.70;0.22;;;;;;;22.19;59.56;100537.22;4995004;28;20026;-96
2023/08/28 08:49:16;;;;;;;0.47;0.10;;;;;;;21.75;59.94;100533.03;4994856;28;20038;-96
2023/08/28 08:51:45;;;;;;;0.50;0.10;;;;;;;21.24;61.80;100531.22;4994892;28;20030;-96
2023/08/28 08:54:26;;;;;;;0.40;0.17;;;;;;;20.99;61.95;100532.88;4994678;28;20366;-96
2023/08/28 08:57:00;;;;;;;0.10;0.10;;;;;;;20.52;62.86;100532.16;4994937;28;20026;-96
2023/08/28 08:59:26;;;;;;;0.15;0.15;;;;;;;20.28;63.74;100534.56;4994724;28;20423;-96
2023/08/28 09:01:52;;;;;;;0.40;0.08;;;;;;;20.29;61.45;100536.22;4995023;28;20023;-96
2023/08/28 09:04:19;;;;;;;0.10;0.08;;;;;;;20.36;63.38;100536.44;4994585;28;20472;-96
2023/08/28 09:06:46;;;;;;;0.10;0.00;;;;;;;19.83;63.96;100525.75;4995202;28;20423;-96
2023/08/28 09:09:12;;;;;;;0.20;0.10;;;;;;;19.89;64.62;100527.75;4994533;28;20121;-96
2023/08/28 09:11:40;;;;;;;0.60;0.20;;;;;;;21.05;61.00;100524.41;4994364;28;20515;-96
2023/08/28 09:14:05;;;;;;;0.25;0.00;;;;;;;21.16;60.60;100519.72;4994657;28;20412;-96
2023/08/28 09:16:33;;;;;;;1.67;0.17;;;;;;;21.33;58.88;100520.63;4994293;28;20038;-96
2023/08/28 09:18:59;;;;;;;0.35;0.15;;;;;;;21.83;59.95;100516.44;4994316;28;20026;-96
2023/08/28 09:21:24;;;;;;;3.50;0.10;;;;;;;22.44;57.77;100525.81;4994088;28;20040;-96
2023/08/28 09:23:50;;;;;;;0.85;0.13;;;;;;;23.06;55.60;100525.28;4994271;28;20476;-96
2023/08/28 09:26:19;;;;;;;1.48;0.20;;;;;;;23.21;54.14;100528.06;4994320;28;20072;-96
2023/08/28 09:29:02;;;;;;;0.08;0.05;;;;;;;22.79;55.96;100529.09;4994381;28;20064;-96
2023/08/28 09:31:35;;;;;;;0.68;0.20;;;;;;;22.71;54.92;100530.91;4993178;28;20025;-96
2023/08/28 09:34:03;;;;;;;0.63;0.30;;;;;;;22.91;55.19;100526.94;4994263;28;20026;-96
2023/08/28 09:36:29;;;;;;;2.67;0.50;;;;;;;23.14;55.39;100532.38;4994258;28;20034;-96
2023/08/28 09:39:03;;;;;;;0.20;0.10;;;;;;;23.68;52.87;100522.00;4993894;28;20084;-96
2023/08/28 09:41:49;;;;;;;1.23;0.38;;;;;;;23.78;53.17;100527.09;4993983;28;20064;-96
2023/08/28 09:44:16;;;;;;;0.73;0.17;;;;;;;23.75;52.41;100516.91;4994114;28;20026;-96
2023/08/28 09:46:46;;;;;;;1.27;0.32;;;;;;;23.39;52.71;100525.22;4994126;28;20030;-96
2023/08/28 09:49:13;;;;;;;0.68;0.30;;;;;;;22.84;53.08;100521.50;4994084;28;20476;-96
2023/08/28 09:51:40;;;;;;;0.95;0.20;;;;;;;22.94;53.04;100526.59;4993958;28;20026;-96
2023/08/28 09:54:06;;;;;;;1.55;0.52;;;;;;;22.10;54.87;100528.50;4994230;28;20034;-96
2023/08/28 09:56:31;;;;;;;1.00;0.20;;;;;;;23.36;52.65;100525.56;4994093;28;20030;-96
2023/08/28 09:58:57;;;;;;;3.33;0.10;;;;;;;23.55;51.63;100534.06;4994059;28;20030;-96
2023/08/28 10:01:24;;;;;;;1.85;0.40;;;;;;;24.08;51.31;100527.25;4993411;28;20058;-96
2023/08/28 10:03:51;;;;;;;1.98;0.30;;;;;;;24.75;49.82;100522.16;4993660;28;20022;-96
2023/08/28 10:06:16;;;;;;;1.08;0.20;;;;;;;25.33;48.79;100518.97;4993617;28;20022;-96
2023/08/28 10:08:43;;;;;;;0.75;0.17;;;;;;;24.83;48.46;100520.44;4993302;28;20041;-96
2023/08/28 10:11:09;;;;;;;0.75;0.22;;;;;;;23.83;50.91;100531.84;4993628;28;20030;-96
2023/08/28 10:13:35;;;;;;;0.55;0.20;;;;;;;23.45;51.36;100535.06;4993968;28;20026;-96
2023/08/28 10:16:06;;;;;;;0.45;0.10;;;;;;;23.16;51.76;100540.09;4994770;28;20550;-96
2023/08/28 10:18:34;;;;;;;1.15;0.30;;;;;;;22.63;52.82;100524.66;4993741;28;20026;-96
2023/08/28 10:21:00;;;;;;;1.05;0.38;;;;;;;22.08;54.04;100532.28;4993115;28;20113;-96
2023/08/28 10:23:27;;;;;;;2.03;0.30;;;;;;;22.90;52.90;100540.25;4994071;28;20535;-96
2023/08/28 10:25:54;;;;;;;0.32;0.20;;;;;;;23.91;51.22;100537.88;4994234;28;20030;-96
2023/08/28 10:28:21;;;;;;;1.48;0.30;;;;;;;24.22;47.73;100531.78;4993833;28;20026;-96
2023/08/28 10:30:50;;;;;;;2.05;0.45;;;;;;;24.01;49.64;100534.22;4993286;28;20050;-96
2023/08/28 10:33:18;;;;;;;1.52;0.40;;;;;;;24.54;49.83;100535.22;4993725;28;20034;-96
2023/08/28 10:35:47;;;;;;;2.47;0.47;;;;;;;24.13;48.04;100527.53;4993391;28;20022;-96
2023/08/28 10:38:13;;;;;;;1.25;0.30;;;;;;;23.89;48.11;100525.88;4993350;28;20033;-96
2023/08/28 10:40:39;;;;;;;0.85;0.28;;;;;;;23.84;49.18;100529.00;4993733;28;20027;-96
2023/08/28 10:43:05;;;;;;;0.60;0.28;;;;;;;22.84;50.72;100524.13;4993601;28;20568;-96
2023/08/28 10:45:37;;;;;;;1.50;0.30;;;;;;;23.16;51.68;100529.56;4994530;28;20023;-96
2023/08/28 10:48:04;;;;;;;0.93;0.47;;;;;;;23.01;51.76;100519.72;4994284;28;20040;-96
2023/08/28 10:50:37;;;;;;;1.15;0.20;;;;;;;22.52;52.11;100532.06;4995668;28;20034;-96
2023/08/28 10:53:03;;;;;;;9.30;0.68;;;;;;;22.27;54.71;100525.94;4993899;28;20014;-96
2023/08/28 10:55:29;;;;;;;3.60;0.55;;;;;;;22.22;54.51;100524.63;4994071;28;20026;-96
2023/08/28 10:57:54;;;;;;;2.67;0.50;;;;;;;22.30;53.61;100528.25;4994196;28;20030;-96
2023/08/28 11:00:22;;;;;;;0.40;0.30;;;;;;;23.36;52.23;100530.00;4993814;28;20052;-96
2023/08/28 11:03:10;;;;;;;0.68;0.20;;;;;;;23.63;51.71;100526.13;4994528;28;20061;-96
2023/08/28 11:05:39;;;;;;;1.38;0.40;;;;;;;24.49;48.52;100519.09;4992575;28;20109;-96
2023/08/28 11:08:07;;;;;;;1.80;0.20;;;;;;;24.50;48.22;100510.16;4992674;28;20045;-96
2023/08/28 11:10:33;;;;;;;2.58;0.65;;;;;;;24.86;48.67;100507.69;4992455;28;20057;-96
2023/08/28 11:13:07;;;;;;;0.52;0.30;;;;;;;24.58;48.13;100512.75;4993189;28;20396;-96
2023/08/28 11:15:40;;;;;;;0.63;0.28;;;;;;;23.98;47.52;100506.38;4993366;28;20030;-96
2023/08/28 11:18:28;;;;;;;1.10;0.35;;;;;;;23.95;48.49;100516.44;4994992;28;20034;-96